Brooklyn, IN (46111)

04:09 AM EDT del 22 Settembre 2014 (GMT -0400)
Main St. | Change Station
CLOSE
Current Station
Stazione meteo personale
Location: Brooklyn, IN
Altitudine: 673 ft
Stazioni meteo nelle vicinanze

Alt. 673 ft 39.54 °N, 86.37 °W | Updated 7 minutes ago

Parzialmente nuvoloso
Parzialmente nuvoloso
48.6 °F
Sembra 49 °F
N
0.0
Vento Variabile Vento da NO

Oggi
Massima -- | Minima -- °F
--% Possibilità di precip.
Ieri
Massima -- | Minima -- °F
Precip. -- in
7:33 AM 7:42 PM
Luna calante, 3% visible
Pressione 30.13 in
Visibilità 10.0 miglia
Nuvole Nubi sparse 2400 ft
Raffreddamento del vento 49 °F
Punto di rugiada 48 °F
Umidità 99%
Piovosità 0.00 in
Spessore del manto nevoso Non disponibile.
Raggi UV 0 fuori da 12
Polline 5.40 fuori da 12
Ozono Buono
PM2.5 Buono
Flu Activity Non disponibile.
METAR KIND 220754Z 34004KT 10SM SCT024 11/08 A3013

More Conditions Fewer Conditions

Pressione 30.13 in
Visibilità 10.0 miglia
Nuvole Nubi sparse 2400 ft
Raffreddamento del vento 49 °F
Punto di rugiada 48 °F
Umidità 99%
Piovosità 0.00 in
Spessore del manto nevoso Non disponibile.
Raggi UV 0 fuori da 12
Polline 5.40 fuori da 12
Ozono Buono
PM2.5 Buono
Flu Activity Non disponibile.
METAR KIND 220754Z 34004KT 10SM SCT024 11/08 A3013

More Conditions Fewer Conditions

10-Day Weather Forecast

Almanac

Astronomia

Sep. 22, 2014 Alba Tramonto
Ora attuale 07:33 EDT 19:42 EDT
Crepuscolo civile 07:06 EDT 20:09 EDT
Crepuscolo nautico 06:34 EDT 20:40 EDT
Crepuscolo astronomico 06:02 EDT 21:12 EDT
Luna 06:01 EDT 18:49 EDT
Estensione della luce visibile 13h 03m
Lunghezza del giorno
12h 09m
Tomorrow will be 2m 34s shorter.
Luna calante, 3% of the Moon is Illuminated
Oggi
Luna calante
Set 24
Nuovo
Ott 1
Primo quarto
Ott 8
Luna piena
Ott 15
Ultimo quarto

Gli estremi di oggi

State Highs State Lows

Community

WunderPhotos

Upload Photos

1,755,392 foto caricate!

Nearby

Qualità dell'aria

  Qualità dell'aria Indice AQ Inquinante
Ieri Buono
PM2.5
Ieri Buono
OZONE
Attuale Buono
PM2.5
Attuale Buono
OZONE
Lunedì Buono
PM2.5
Lunedì Buono
OZONE

Profondità neve

Stazione Profondità Altitudine
Non sono state evidenziate nuove nevicate

Attività sismica

Città  Distanza Mag. Data & Ora
Non sono state riportate attività sismiche nelle vicinanze.
Minimo Magnitudo Mostrato è 2.5.

Temperature delle acque costiere

Località Temperatura
Nessun dato dalle stazioni

Stazioni meteo nelle vicinanze